sensor_id;sensor_type;location;lat;lon;timestamp;P1;durP1;ratioP1;P2;durP2;ratioP2
31378;SDS011;61664;48.112;11.662;2023-04-08T00:00:59;3.97;;;3.67;;
31378;SDS011;61664;48.112;11.662;2023-04-08T00:03:26;4.22;;;3.85;;
31378;SDS011;61664;48.112;11.662;2023-04-08T00:05:53;4.10;;;3.80;;
31378;SDS011;61664;48.112;11.662;2023-04-08T00:08:20;4.38;;;3.95;;
31378;SDS011;61664;48.112;11.662;2023-04-08T00:10:47;3.88;;;3.58;;
31378;SDS011;61664;48.112;11.662;2023-04-08T00:13:14;6.15;;;4.20;;
31378;SDS011;61664;48.112;11.662;2023-04-08T00:15:41;4.57;;;4.13;;
31378;SDS011;61664;48.112;11.662;2023-04-08T00:18:08;4.32;;;4.00;;
31378;SDS011;61664;48.112;11.662;2023-04-08T00:20:35;4.30;;;3.88;;
31378;SDS011;61664;48.112;11.662;2023-04-08T00:23:02;3.92;;;3.63;;
31378;SDS011;61664;48.112;11.662;2023-04-08T00:25:29;6.13;;;3.85;;
31378;SDS011;61664;48.112;11.662;2023-04-08T00:27:56;4.68;;;4.28;;
31378;SDS011;61664;48.112;11.662;2023-04-08T00:30:23;3.88;;;3.40;;
31378;SDS011;61664;48.112;11.662;2023-04-08T00:32:50;3.72;;;3.42;;
31378;SDS011;61664;48.112;11.662;2023-04-08T00:35:17;3.58;;;3.33;;
31378;SDS011;61664;48.112;11.662;2023-04-08T00:37:44;3.63;;;3.35;;
31378;SDS011;61664;48.112;11.662;2023-04-08T00:40:11;3.40;;;3.17;;
31378;SDS011;61664;48.112;11.662;2023-04-08T00:42:38;3.53;;;3.22;;
31378;SDS011;61664;48.112;11.662;2023-04-08T00:45:05;4.68;;;4.22;;
31378;SDS011;61664;48.112;11.662;2023-04-08T00:47:32;3.78;;;3.55;;
31378;SDS011;61664;48.112;11.662;2023-04-08T00:50:02;3.78;;;3.47;;
31378;SDS011;61664;48.112;11.662;2023-04-08T00:52:29;4.57;;;4.18;;
31378;SDS011;61664;48.112;11.662;2023-04-08T00:54:56;5.05;;;3.80;;
31378;SDS011;61664;48.112;11.662;2023-04-08T00:57:23;3.80;;;3.55;;
31378;SDS011;61664;48.112;11.662;2023-04-08T00:59:50;3.65;;;3.42;;
31378;SDS011;61664;48.112;11.662;2023-04-08T01:02:20;4.22;;;3.17;;
31378;SDS011;61664;48.112;11.662;2023-04-08T01:05:05;3.92;;;3.03;;
31378;SDS011;61664;48.112;11.662;2023-04-08T01:07:45;3.55;;;3.25;;
31378;SDS011;61664;48.112;11.662;2023-04-08T01:10:19;2.97;;;2.78;;
31378;SDS011;61664;48.112;11.662;2023-04-08T01:12:53;3.00;;;2.80;;
31378;SDS011;61664;48.112;11.662;2023-04-08T01:15:25;3.40;;;3.00;;
31378;SDS011;61664;48.112;11.662;2023-04-08T01:20:24;3.05;;;2.85;;
31378;SDS011;61664;48.112;11.662;2023-04-08T01:25:53;2.78;;;2.58;;
31378;SDS011;61664;48.112;11.662;2023-04-08T01:28:22;3.38;;;2.67;;
31378;SDS011;61664;48.112;11.662;2023-04-08T01:30:54;2.67;;;2.47;;
31378;SDS011;61664;48.112;11.662;2023-04-08T01:33:24;3.50;;;3.17;;
31378;SDS011;61664;48.112;11.662;2023-04-08T01:35:55;3.03;;;2.83;;
31378;SDS011;61664;48.112;11.662;2023-04-08T01:38:23;2.88;;;2.67;;
31378;SDS011;61664;48.112;11.662;2023-04-08T01:40:52;2.95;;;2.75;;
31378;SDS011;61664;48.112;11.662;2023-04-08T01:43:21;3.75;;;2.85;;
31378;SDS011;61664;48.112;11.662;2023-04-08T01:45:50;2.92;;;2.72;;
31378;SDS011;61664;48.112;11.662;2023-04-08T01:48:23;3.90;;;3.08;;
31378;SDS011;61664;48.112;11.662;2023-04-08T01:50:51;3.33;;;3.10;;
31378;SDS011;61664;48.112;11.662;2023-04-08T01:53:22;3.65;;;3.20;;
31378;SDS011;61664;48.112;11.662;2023-04-08T01:55:51;2.90;;;2.70;;
31378;SDS011;61664;48.112;11.662;2023-04-08T01:58:25;5.55;;;3.10;;
31378;SDS011;61664;48.112;11.662;2023-04-08T02:01:02;3.03;;;2.83;;
31378;SDS011;61664;48.112;11.662;2023-04-08T02:03:35;3.60;;;2.63;;
31378;SDS011;61664;48.112;11.662;2023-04-08T02:06:03;3.08;;;2.88;;
31378;SDS011;61664;48.112;11.662;2023-04-08T02:08:33;3.35;;;3.13;;
31378;SDS011;61664;48.112;11.662;2023-04-08T02:11:02;3.35;;;3.08;;
31378;SDS011;61664;48.112;11.662;2023-04-08T02:13:29;3.53;;;2.80;;
31378;SDS011;61664;48.112;11.662;2023-04-08T02:21:26;2.72;;;2.53;;
31378;SDS011;61664;48.112;11.662;2023-04-08T02:24:07;3.00;;;2.78;;
31378;SDS011;61664;48.112;11.662;2023-04-08T02:26:37;3.38;;;3.08;;
31378;SDS011;61664;48.112;11.662;2023-04-08T02:29:10;3.45;;;3.22;;
31378;SDS011;61664;48.112;11.662;2023-04-08T02:31:41;2.90;;;2.70;;
31378;SDS011;61664;48.112;11.662;2023-04-08T02:34:10;3.45;;;3.15;;
31378;SDS011;61664;48.112;11.662;2023-04-08T02:36:38;3.30;;;3.05;;
31378;SDS011;61664;48.112;11.662;2023-04-08T02:39:07;3.78;;;3.13;;
31378;SDS011;61664;48.112;11.662;2023-04-08T02:41:34;3.72;;;3.42;;
31378;SDS011;61664;48.112;11.662;2023-04-08T02:44:01;3.53;;;3.17;;
31378;SDS011;61664;48.112;11.662;2023-04-08T02:46:28;3.42;;;3.10;;
31378;SDS011;61664;48.112;11.662;2023-04-08T02:48:55;5.70;;;3.55;;
31378;SDS011;61664;48.112;11.662;2023-04-08T02:51:22;4.13;;;3.72;;
31378;SDS011;61664;48.112;11.662;2023-04-08T02:53:49;3.85;;;3.47;;
31378;SDS011;61664;48.112;11.662;2023-04-08T02:56:16;5.43;;;3.15;;
31378;SDS011;61664;48.112;11.662;2023-04-08T02:58:43;3.92;;;3.63;;
31378;SDS011;61664;48.112;11.662;2023-04-08T03:01:10;3.50;;;3.20;;
31378;SDS011;61664;48.112;11.662;2023-04-08T03:03:37;3.42;;;3.13;;
31378;SDS011;61664;48.112;11.662;2023-04-08T03:06:04;3.25;;;3.05;;
31378;SDS011;61664;48.112;11.662;2023-04-08T03:08:30;3.97;;;3.60;;
31378;SDS011;61664;48.112;11.662;2023-04-08T03:10:58;2.88;;;2.67;;
31378;SDS011;61664;48.112;11.662;2023-04-08T03:13:25;3.75;;;3.45;;
31378;SDS011;61664;48.112;11.662;2023-04-08T03:15:54;4.25;;;3.88;;
31378;SDS011;61664;48.112;11.662;2023-04-08T03:18:21;3.60;;;3.30;;
31378;SDS011;61664;48.112;11.662;2023-04-08T03:20:48;3.72;;;3.42;;
31378;SDS011;61664;48.112;11.662;2023-04-08T03:23:15;3.25;;;3.03;;
31378;SDS011;61664;48.112;11.662;2023-04-08T03:25:42;3.90;;;3.50;;
31378;SDS011;61664;48.112;11.662;2023-04-08T03:28:09;3.50;;;3.25;;
31378;SDS011;61664;48.112;11.662;2023-04-08T03:30:36;4.25;;;3.63;;
31378;SDS011;61664;48.112;11.662;2023-04-08T03:33:03;3.95;;;3.65;;
31378;SDS011;61664;48.112;11.662;2023-04-08T03:35:33;3.63;;;3.33;;
31378;SDS011;61664;48.112;11.662;2023-04-08T03:38:00;3.90;;;3.60;;
31378;SDS011;61664;48.112;11.662;2023-04-08T03:40:27;4.63;;;4.15;;
31378;SDS011;61664;48.112;11.662;2023-04-08T03:42:54;3.65;;;3.35;;
31378;SDS011;61664;48.112;11.662;2023-04-08T03:45:21;3.78;;;3.55;;
31378;SDS011;61664;48.112;11.662;2023-04-08T03:47:48;4.53;;;4.13;;
31378;SDS011;61664;48.112;11.662;2023-04-08T03:50:14;3.80;;;3.60;;
31378;SDS011;61664;48.112;11.662;2023-04-08T03:52:41;4.05;;;3.72;;
31378;SDS011;61664;48.112;11.662;2023-04-08T03:55:08;5.00;;;3.97;;
31378;SDS011;61664;48.112;11.662;2023-04-08T03:57:35;4.05;;;3.65;;
31378;SDS011;61664;48.112;11.662;2023-04-08T04:00:02;3.97;;;3.67;;
31378;SDS011;61664;48.112;11.662;2023-04-08T04:02:29;4.07;;;3.75;;
31378;SDS011;61664;48.112;11.662;2023-04-08T04:04:56;4.70;;;4.30;;
31378;SDS011;61664;48.112;11.662;2023-04-08T04:07:23;4.35;;;4.03;;
31378;SDS011;61664;48.112;11.662;2023-04-08T04:09:50;4.43;;;4.10;;
31378;SDS011;61664;48.112;11.662;2023-04-08T04:12:19;5.13;;;4.20;;
31378;SDS011;61664;48.112;11.662;2023-04-08T04:14:46;4.35;;;4.05;;
31378;SDS011;61664;48.112;11.662;2023-04-08T04:17:13;5.45;;;4.95;;
31378;SDS011;61664;48.112;11.662;2023-04-08T04:19:40;4.63;;;4.28;;
31378;SDS011;61664;48.112;11.662;2023-04-08T04:22:07;4.20;;;3.90;;
31378;SDS011;61664;48.112;11.662;2023-04-08T04:24:34;4.88;;;4.47;;
31378;SDS011;61664;48.112;11.662;2023-04-08T04:27:01;4.63;;;4.13;;
31378;SDS011;61664;48.112;11.662;2023-04-08T04:29:29;4.78;;;4.10;;
31378;SDS011;61664;48.112;11.662;2023-04-08T04:31:59;4.53;;;4.18;;
31378;SDS011;61664;48.112;11.662;2023-04-08T04:34:26;4.63;;;4.28;;
31378;SDS011;61664;48.112;11.662;2023-04-08T04:36:53;4.90;;;4.50;;
31378;SDS011;61664;48.112;11.662;2023-04-08T04:39:20;7.97;;;4.82;;
31378;SDS011;61664;48.112;11.662;2023-04-08T04:41:47;4.50;;;4.10;;
31378;SDS011;61664;48.112;11.662;2023-04-08T04:44:14;4.32;;;4.05;;
31378;SDS011;61664;48.112;11.662;2023-04-08T04:46:41;4.40;;;4.00;;
31378;SDS011;61664;48.112;11.662;2023-04-08T04:49:09;4.95;;;4.60;;
31378;SDS011;61664;48.112;11.662;2023-04-08T04:51:35;5.53;;;5.00;;
31378;SDS011;61664;48.112;11.662;2023-04-08T04:54:02;6.35;;;5.72;;
31378;SDS011;61664;48.112;11.662;2023-04-08T04:56:29;5.55;;;5.05;;
31378;SDS011;61664;48.112;11.662;2023-04-08T04:58:56;5.03;;;4.65;;
31378;SDS011;61664;48.112;11.662;2023-04-08T05:01:23;5.65;;;5.00;;
31378;SDS011;61664;48.112;11.662;2023-04-08T05:03:50;5.93;;;5.35;;
31378;SDS011;61664;48.112;11.662;2023-04-08T05:06:17;4.90;;;4.50;;
31378;SDS011;61664;48.112;11.662;2023-04-08T05:08:44;5.75;;;5.22;;
31378;SDS011;61664;48.112;11.662;2023-04-08T05:11:23;5.53;;;5.07;;
31378;SDS011;61664;48.112;11.662;2023-04-08T05:13:50;7.05;;;5.90;;
31378;SDS011;61664;48.112;11.662;2023-04-08T05:16:17;5.43;;;4.97;;
31378;SDS011;61664;48.112;11.662;2023-04-08T05:18:44;5.38;;;4.95;;
31378;SDS011;61664;48.112;11.662;2023-04-08T05:21:11;6.47;;;5.70;;
31378;SDS011;61664;48.112;11.662;2023-04-08T05:23:37;6.82;;;6.22;;
31378;SDS011;61664;48.112;11.662;2023-04-08T05:26:07;6.78;;;6.15;;
31378;SDS011;61664;48.112;11.662;2023-04-08T05:28:34;6.45;;;5.82;;
31378;SDS011;61664;48.112;11.662;2023-04-08T05:31:01;6.90;;;6.28;;
31378;SDS011;61664;48.112;11.662;2023-04-08T05:33:28;6.30;;;5.70;;
31378;SDS011;61664;48.112;11.662;2023-04-08T05:35:55;7.97;;;6.90;;
31378;SDS011;61664;48.112;11.662;2023-04-08T05:38:22;7.00;;;6.07;;
31378;SDS011;61664;48.112;11.662;2023-04-08T05:40:49;7.05;;;6.30;;
31378;SDS011;61664;48.112;11.662;2023-04-08T05:43:16;7.13;;;6.43;;
31378;SDS011;61664;48.112;11.662;2023-04-08T05:45:43;9.23;;;7.40;;
31378;SDS011;61664;48.112;11.662;2023-04-08T05:48:10;6.97;;;6.30;;
31378;SDS011;61664;48.112;11.662;2023-04-08T05:50:37;8.88;;;6.95;;
31378;SDS011;61664;48.112;11.662;2023-04-08T05:53:04;7.80;;;7.03;;
31378;SDS011;61664;48.112;11.662;2023-04-08T05:55:31;8.70;;;7.30;;
31378;SDS011;61664;48.112;11.662;2023-04-08T05:57:58;8.20;;;7.38;;
31378;SDS011;61664;48.112;11.662;2023-04-08T06:00:25;7.60;;;6.90;;
31378;SDS011;61664;48.112;11.662;2023-04-08T06:02:52;10.23;;;7.68;;
31378;SDS011;61664;48.112;11.662;2023-04-08T06:05:19;7.90;;;7.05;;
31378;SDS011;61664;48.112;11.662;2023-04-08T06:07:46;8.30;;;7.18;;
31378;SDS011;61664;48.112;11.662;2023-04-08T06:10:13;9.15;;;7.18;;
31378;SDS011;61664;48.112;11.662;2023-04-08T06:12:41;7.78;;;6.93;;
31378;SDS011;61664;48.112;11.662;2023-04-08T06:15:08;9.43;;;7.35;;
31378;SDS011;61664;48.112;11.662;2023-04-08T06:17:35;8.60;;;7.68;;
31378;SDS011;61664;48.112;11.662;2023-04-08T06:20:06;7.68;;;6.88;;
31378;SDS011;61664;48.112;11.662;2023-04-08T06:22:36;7.80;;;7.03;;
31378;SDS011;61664;48.112;11.662;2023-04-08T06:25:07;8.30;;;7.18;;
31378;SDS011;61664;48.112;11.662;2023-04-08T06:27:34;9.00;;;7.60;;
31378;SDS011;61664;48.112;11.662;2023-04-08T06:30:01;8.27;;;7.47;;
31378;SDS011;61664;48.112;11.662;2023-04-08T06:32:27;7.93;;;6.93;;
31378;SDS011;61664;48.112;11.662;2023-04-08T06:34:54;9.75;;;8.05;;
31378;SDS011;61664;48.112;11.662;2023-04-08T06:37:21;9.52;;;7.32;;
31378;SDS011;61664;48.112;11.662;2023-04-08T06:39:49;7.75;;;7.05;;
31378;SDS011;61664;48.112;11.662;2023-04-08T06:42:16;7.85;;;6.97;;
31378;SDS011;61664;48.112;11.662;2023-04-08T06:44:43;9.38;;;7.22;;
31378;SDS011;61664;48.112;11.662;2023-04-08T06:47:10;7.90;;;6.93;;
31378;SDS011;61664;48.112;11.662;2023-04-08T06:49:36;8.00;;;7.20;;
31378;SDS011;61664;48.112;11.662;2023-04-08T06:52:03;8.85;;;7.53;;
31378;SDS011;61664;48.112;11.662;2023-04-08T06:54:32;8.05;;;7.22;;
31378;SDS011;61664;48.112;11.662;2023-04-08T06:56:58;7.90;;;7.10;;
31378;SDS011;61664;48.112;11.662;2023-04-08T06:59:25;8.70;;;7.30;;
31378;SDS011;61664;48.112;11.662;2023-04-08T07:01:52;10.25;;;7.50;;
31378;SDS011;61664;48.112;11.662;2023-04-08T07:04:19;8.55;;;7.63;;
31378;SDS011;61664;48.112;11.662;2023-04-08T07:06:46;8.70;;;7.78;;
31378;SDS011;61664;48.112;11.662;2023-04-08T07:09:13;8.27;;;7.35;;
31378;SDS011;61664;48.112;11.662;2023-04-08T07:11:40;8.23;;;7.32;;
31378;SDS011;61664;48.112;11.662;2023-04-08T07:14:07;7.53;;;6.80;;
31378;SDS011;61664;48.112;11.662;2023-04-08T07:16:34;8.85;;;7.40;;
31378;SDS011;61664;48.112;11.662;2023-04-08T07:19:01;7.95;;;7.03;;
31378;SDS011;61664;48.112;11.662;2023-04-08T07:21:28;8.73;;;7.82;;
31378;SDS011;61664;48.112;11.662;2023-04-08T07:23:56;7.20;;;6.53;;
31378;SDS011;61664;48.112;11.662;2023-04-08T07:26:23;8.43;;;7.57;;
31378;SDS011;61664;48.112;11.662;2023-04-08T07:28:49;7.63;;;6.90;;
31378;SDS011;61664;48.112;11.662;2023-04-08T07:31:17;8.43;;;7.53;;
31378;SDS011;61664;48.112;11.662;2023-04-08T07:33:44;7.80;;;6.90;;
31378;SDS011;61664;48.112;11.662;2023-04-08T07:36:12;7.47;;;6.65;;
31378;SDS011;61664;48.112;11.662;2023-04-08T07:38:40;9.23;;;7.75;;
31378;SDS011;61664;48.112;11.662;2023-04-08T07:41:07;8.23;;;7.43;;
31378;SDS011;61664;48.112;11.662;2023-04-08T07:43:34;10.00;;;8.35;;
31378;SDS011;61664;48.112;11.662;2023-04-08T07:46:03;8.55;;;7.60;;
31378;SDS011;61664;48.112;11.662;2023-04-08T07:48:31;9.10;;;7.72;;
31378;SDS011;61664;48.112;11.662;2023-04-08T07:51:03;8.35;;;7.00;;
31378;SDS011;61664;48.112;11.662;2023-04-08T07:53:36;7.53;;;6.78;;
31378;SDS011;61664;48.112;11.662;2023-04-08T07:56:12;8.13;;;6.45;;
31378;SDS011;61664;48.112;11.662;2023-04-08T07:58:41;7.88;;;7.10;;
31378;SDS011;61664;48.112;11.662;2023-04-08T08:01:17;7.57;;;6.88;;
31378;SDS011;61664;48.112;11.662;2023-04-08T08:03:47;7.32;;;6.68;;
31378;SDS011;61664;48.112;11.662;2023-04-08T08:06:16;8.10;;;6.65;;
31378;SDS011;61664;48.112;11.662;2023-04-08T08:08:43;7.00;;;6.30;;
31378;SDS011;61664;48.112;11.662;2023-04-08T08:11:10;6.97;;;6.28;;
31378;SDS011;61664;48.112;11.662;2023-04-08T08:13:37;8.38;;;7.35;;
31378;SDS011;61664;48.112;11.662;2023-04-08T08:16:04;7.07;;;6.38;;
31378;SDS011;61664;48.112;11.662;2023-04-08T08:18:34;7.95;;;6.60;;
31378;SDS011;61664;48.112;11.662;2023-04-08T08:21:02;7.18;;;6.25;;
31378;SDS011;61664;48.112;11.662;2023-04-08T08:23:29;7.18;;;6.45;;
31378;SDS011;61664;48.112;11.662;2023-04-08T08:25:59;8.23;;;6.63;;
31378;SDS011;61664;48.112;11.662;2023-04-08T08:28:29;6.70;;;6.05;;
31378;SDS011;61664;48.112;11.662;2023-04-08T08:30:56;9.77;;;7.55;;
31378;SDS011;61664;48.112;11.662;2023-04-08T08:33:24;8.05;;;6.68;;
31378;SDS011;61664;48.112;11.662;2023-04-08T08:35:51;7.30;;;6.60;;
31378;SDS011;61664;48.112;11.662;2023-04-08T08:38:19;8.00;;;7.03;;
31378;SDS011;61664;48.112;11.662;2023-04-08T08:40:46;8.27;;;7.20;;
31378;SDS011;61664;48.112;11.662;2023-04-08T08:43:19;8.68;;;7.43;;
31378;SDS011;61664;48.112;11.662;2023-04-08T08:45:46;9.77;;;7.78;;
31378;SDS011;61664;48.112;11.662;2023-04-08T08:48:13;7.75;;;6.95;;
31378;SDS011;61664;48.112;11.662;2023-04-08T08:50:43;6.80;;;6.18;;
31378;SDS011;61664;48.112;11.662;2023-04-08T08:53:11;7.57;;;6.68;;
31378;SDS011;61664;48.112;11.662;2023-04-08T08:55:38;8.98;;;6.97;;
31378;SDS011;61664;48.112;11.662;2023-04-08T08:58:26;7.68;;;6.97;;
31378;SDS011;61664;48.112;11.662;2023-04-08T09:00:53;7.32;;;6.63;;
31378;SDS011;61664;48.112;11.662;2023-04-08T09:03:21;9.52;;;7.45;;
31378;SDS011;61664;48.112;11.662;2023-04-08T09:06:00;8.35;;;7.55;;
31378;SDS011;61664;48.112;11.662;2023-04-08T09:08:31;8.65;;;7.75;;
31378;SDS011;61664;48.112;11.662;2023-04-08T09:11:10;7.65;;;6.85;;
31378;SDS011;61664;48.112;11.662;2023-04-08T09:13:44;7.88;;;7.10;;
31378;SDS011;61664;48.112;11.662;2023-04-08T09:16:12;8.85;;;7.95;;
31378;SDS011;61664;48.112;11.662;2023-04-08T09:18:43;8.60;;;7.70;;
31378;SDS011;61664;48.112;11.662;2023-04-08T09:21:14;8.90;;;7.95;;
31378;SDS011;61664;48.112;11.662;2023-04-08T09:23:47;7.57;;;6.78;;
31378;SDS011;61664;48.112;11.662;2023-04-08T09:26:17;8.15;;;7.32;;
31378;SDS011;61664;48.112;11.662;2023-04-08T09:28:56;9.00;;;7.68;;
31378;SDS011;61664;48.112;11.662;2023-04-08T09:31:43;9.38;;;8.25;;
31378;SDS011;61664;48.112;11.662;2023-04-08T09:34:13;8.20;;;7.30;;
31378;SDS011;61664;48.112;11.662;2023-04-08T09:36:46;8.85;;;6.82;;
31378;SDS011;61664;48.112;11.662;2023-04-08T09:39:17;9.27;;;7.03;;
31378;SDS011;61664;48.112;11.662;2023-04-08T09:41:44;7.63;;;6.80;;
31378;SDS011;61664;48.112;11.662;2023-04-08T09:44:15;7.90;;;7.13;;
31378;SDS011;61664;48.112;11.662;2023-04-08T09:49:17;7.97;;;7.18;;
31378;SDS011;61664;48.112;11.662;2023-04-08T09:57:45;7.85;;;6.47;;
31378;SDS011;61664;48.112;11.662;2023-04-08T10:00:29;7.25;;;6.47;;
31378;SDS011;61664;48.112;11.662;2023-04-08T10:05:55;7.97;;;7.05;;
31378;SDS011;61664;48.112;11.662;2023-04-08T10:08:23;8.10;;;7.18;;
31378;SDS011;61664;48.112;11.662;2023-04-08T10:10:52;9.73;;;7.00;;
31378;SDS011;61664;48.112;11.662;2023-04-08T10:13:21;9.68;;;6.50;;
31378;SDS011;61664;48.112;11.662;2023-04-08T10:15:50;7.95;;;7.15;;
31378;SDS011;61664;48.112;11.662;2023-04-08T10:18:44;8.05;;;7.20;;
31378;SDS011;61664;48.112;11.662;2023-04-08T10:21:32;7.40;;;6.65;;
31378;SDS011;61664;48.112;11.662;2023-04-08T10:24:06;12.32;;;7.68;;
31378;SDS011;61664;48.112;11.662;2023-04-08T10:26:40;8.35;;;7.45;;
31378;SDS011;61664;48.112;11.662;2023-04-08T10:31:54;9.30;;;7.93;;
31378;SDS011;61664;48.112;11.662;2023-04-08T10:34:23;11.40;;;9.38;;
31378;SDS011;61664;48.112;11.662;2023-04-08T10:36:53;9.77;;;8.57;;
31378;SDS011;61664;48.112;11.662;2023-04-08T10:39:24;8.70;;;7.80;;
31378;SDS011;61664;48.112;11.662;2023-04-08T10:41:52;8.85;;;8.05;;
31378;SDS011;61664;48.112;11.662;2023-04-08T10:44:20;8.77;;;7.85;;
31378;SDS011;61664;48.112;11.662;2023-04-08T10:46:50;10.07;;;8.07;;
31378;SDS011;61664;48.112;11.662;2023-04-08T10:49:18;7.70;;;7.00;;
31378;SDS011;61664;48.112;11.662;2023-04-08T10:51:47;8.00;;;7.30;;
31378;SDS011;61664;48.112;11.662;2023-04-08T10:54:15;9.13;;;7.45;;
31378;SDS011;61664;48.112;11.662;2023-04-08T10:56:44;8.23;;;7.28;;
31378;SDS011;61664;48.112;11.662;2023-04-08T10:59:14;8.90;;;7.97;;
31378;SDS011;61664;48.112;11.662;2023-04-08T11:01:44;8.80;;;7.90;;
31378;SDS011;61664;48.112;11.662;2023-04-08T11:04:15;9.32;;;8.43;;
31378;SDS011;61664;48.112;11.662;2023-04-08T11:06:45;8.43;;;7.63;;
31378;SDS011;61664;48.112;11.662;2023-04-08T11:09:13;9.10;;;8.18;;
31378;SDS011;61664;48.112;11.662;2023-04-08T11:11:42;10.20;;;8.57;;
31378;SDS011;61664;48.112;11.662;2023-04-08T11:14:11;9.63;;;8.63;;
31378;SDS011;61664;48.112;11.662;2023-04-08T11:16:39;8.35;;;7.55;;
31378;SDS011;61664;48.112;11.662;2023-04-08T11:19:06;8.80;;;7.90;;
31378;SDS011;61664;48.112;11.662;2023-04-08T11:21:34;9.27;;;8.18;;
31378;SDS011;61664;48.112;11.662;2023-04-08T11:24:06;9.38;;;7.88;;
31378;SDS011;61664;48.112;11.662;2023-04-08T11:26:41;8.65;;;7.78;;
31378;SDS011;61664;48.112;11.662;2023-04-08T11:29:09;8.80;;;7.90;;
31378;SDS011;61664;48.112;11.662;2023-04-08T11:31:39;9.88;;;8.65;;
31378;SDS011;61664;48.112;11.662;2023-04-08T11:34:09;9.60;;;8.67;;
31378;SDS011;61664;48.112;11.662;2023-04-08T11:36:38;9.82;;;7.85;;
31378;SDS011;61664;48.112;11.662;2023-04-08T11:39:08;11.10;;;9.07;;
31378;SDS011;61664;48.112;11.662;2023-04-08T11:41:37;10.32;;;8.55;;
31378;SDS011;61664;48.112;11.662;2023-04-08T11:44:08;9.55;;;8.00;;
31378;SDS011;61664;48.112;11.662;2023-04-08T11:46:35;9.60;;;8.60;;
31378;SDS011;61664;48.112;11.662;2023-04-08T11:49:03;10.20;;;8.82;;
31378;SDS011;61664;48.112;11.662;2023-04-08T11:51:32;9.80;;;8.13;;
31378;SDS011;61664;48.112;11.662;2023-04-08T11:54:04;11.40;;;8.38;;
31378;SDS011;61664;48.112;11.662;2023-04-08T11:56:43;10.73;;;9.63;;
31378;SDS011;61664;48.112;11.662;2023-04-08T11:59:12;9.32;;;8.35;;
31378;SDS011;61664;48.112;11.662;2023-04-08T12:01:39;9.70;;;8.50;;
31378;SDS011;61664;48.112;11.662;2023-04-08T12:04:06;10.02;;;9.10;;
31378;SDS011;61664;48.112;11.662;2023-04-08T12:06:35;9.57;;;8.35;;
31378;SDS011;61664;48.112;11.662;2023-04-08T12:09:02;8.95;;;8.13;;
31378;SDS011;61664;48.112;11.662;2023-04-08T12:11:29;9.48;;;8.35;;
31378;SDS011;61664;48.112;11.662;2023-04-08T12:13:56;8.77;;;7.88;;
31378;SDS011;61664;48.112;11.662;2023-04-08T12:16:24;8.88;;;7.90;;
31378;SDS011;61664;48.112;11.662;2023-04-08T12:18:51;7.13;;;6.57;;
31378;SDS011;61664;48.112;11.662;2023-04-08T12:21:18;8.20;;;7.40;;
31378;SDS011;61664;48.112;11.662;2023-04-08T12:23:45;8.15;;;7.40;;
31378;SDS011;61664;48.112;11.662;2023-04-08T12:26:12;7.68;;;6.88;;
31378;SDS011;61664;48.112;11.662;2023-04-08T12:28:39;7.75;;;7.05;;
31378;SDS011;61664;48.112;11.662;2023-04-08T12:31:06;8.88;;;7.20;;
31378;SDS011;61664;48.112;11.662;2023-04-08T12:33:33;7.50;;;6.80;;
31378;SDS011;61664;48.112;11.662;2023-04-08T12:36:00;7.57;;;6.88;;
31378;SDS011;61664;48.112;11.662;2023-04-08T12:38:27;6.68;;;6.10;;
31378;SDS011;61664;48.112;11.662;2023-04-08T12:40:54;7.45;;;6.80;;
31378;SDS011;61664;48.112;11.662;2023-04-08T12:43:21;12.43;;;7.43;;
31378;SDS011;61664;48.112;11.662;2023-04-08T12:45:49;8.60;;;7.80;;
31378;SDS011;61664;48.112;11.662;2023-04-08T12:48:17;8.20;;;7.35;;
31378;SDS011;61664;48.112;11.662;2023-04-08T12:50:43;7.95;;;6.57;;
31378;SDS011;61664;48.112;11.662;2023-04-08T12:53:10;7.93;;;7.22;;
31378;SDS011;61664;48.112;11.662;2023-04-08T12:55:37;8.10;;;7.05;;
31378;SDS011;61664;48.112;11.662;2023-04-08T12:58:04;8.68;;;7.80;;
31378;SDS011;61664;48.112;11.662;2023-04-08T13:00:31;8.30;;;7.50;;
31378;SDS011;61664;48.112;11.662;2023-04-08T13:02:58;8.02;;;7.22;;
31378;SDS011;61664;48.112;11.662;2023-04-08T13:05:26;8.68;;;7.80;;
31378;SDS011;61664;48.112;11.662;2023-04-08T13:08:08;7.72;;;7.03;;
31378;SDS011;61664;48.112;11.662;2023-04-08T13:10:37;9.02;;;7.70;;
31378;SDS011;61664;48.112;11.662;2023-04-08T13:13:04;9.25;;;7.70;;
31378;SDS011;61664;48.112;11.662;2023-04-08T13:15:31;10.63;;;8.20;;
31378;SDS011;61664;48.112;11.662;2023-04-08T13:17:57;9.00;;;8.10;;
31378;SDS011;61664;48.112;11.662;2023-04-08T13:20:25;10.10;;;7.38;;
31378;SDS011;61664;48.112;11.662;2023-04-08T13:22:52;8.40;;;7.60;;
31378;SDS011;61664;48.112;11.662;2023-04-08T13:25:18;8.32;;;7.53;;
31378;SDS011;61664;48.112;11.662;2023-04-08T13:27:46;7.28;;;6.55;;
31378;SDS011;61664;48.112;11.662;2023-04-08T13:30:13;7.70;;;6.28;;
31378;SDS011;61664;48.112;11.662;2023-04-08T13:32:40;7.05;;;6.40;;
31378;SDS011;61664;48.112;11.662;2023-04-08T13:35:07;6.53;;;5.95;;
31378;SDS011;61664;48.112;11.662;2023-04-08T13:37:34;6.82;;;6.22;;
31378;SDS011;61664;48.112;11.662;2023-04-08T13:40:01;6.18;;;5.65;;
31378;SDS011;61664;48.112;11.662;2023-04-08T13:42:29;7.53;;;6.30;;
31378;SDS011;61664;48.112;11.662;2023-04-08T13:44:59;12.50;;;6.18;;
31378;SDS011;61664;48.112;11.662;2023-04-08T13:47:27;7.05;;;6.35;;
31378;SDS011;61664;48.112;11.662;2023-04-08T13:49:54;6.05;;;5.55;;
31378;SDS011;61664;48.112;11.662;2023-04-08T13:52:20;6.40;;;5.80;;
31378;SDS011;61664;48.112;11.662;2023-04-08T13:54:47;6.50;;;5.90;;
31378;SDS011;61664;48.112;11.662;2023-04-08T13:57:14;6.75;;;6.15;;
31378;SDS011;61664;48.112;11.662;2023-04-08T13:59:41;6.32;;;5.82;;
31378;SDS011;61664;48.112;11.662;2023-04-08T14:02:10;7.60;;;6.95;;
31378;SDS011;61664;48.112;11.662;2023-04-08T14:04:38;6.22;;;5.72;;
31378;SDS011;61664;48.112;11.662;2023-04-08T14:07:05;6.50;;;5.93;;
31378;SDS011;61664;48.112;11.662;2023-04-08T14:09:32;5.93;;;5.40;;
31378;SDS011;61664;48.112;11.662;2023-04-08T14:11:59;6.00;;;5.60;;
31378;SDS011;61664;48.112;11.662;2023-04-08T14:14:26;6.13;;;5.63;;
31378;SDS011;61664;48.112;11.662;2023-04-08T14:16:53;6.07;;;5.55;;
31378;SDS011;61664;48.112;11.662;2023-04-08T14:19:19;6.78;;;5.93;;
31378;SDS011;61664;48.112;11.662;2023-04-08T14:21:46;6.90;;;6.22;;
31378;SDS011;61664;48.112;11.662;2023-04-08T14:24:14;8.85;;;7.18;;
31378;SDS011;61664;48.112;11.662;2023-04-08T14:26:41;7.30;;;6.60;;
31378;SDS011;61664;48.112;11.662;2023-04-08T14:29:08;7.18;;;6.53;;
31378;SDS011;61664;48.112;11.662;2023-04-08T14:31:35;7.32;;;6.63;;
31378;SDS011;61664;48.112;11.662;2023-04-08T14:34:02;6.93;;;6.32;;
31378;SDS011;61664;48.112;11.662;2023-04-08T14:36:29;7.68;;;6.90;;
31378;SDS011;61664;48.112;11.662;2023-04-08T14:38:59;7.60;;;6.90;;
31378;SDS011;61664;48.112;11.662;2023-04-08T14:41:27;7.90;;;7.10;;
31378;SDS011;61664;48.112;11.662;2023-04-08T14:43:54;8.82;;;6.95;;
31378;SDS011;61664;48.112;11.662;2023-04-08T14:46:21;6.53;;;6.03;;
31378;SDS011;61664;48.112;11.662;2023-04-08T14:48:48;6.55;;;6.05;;
31378;SDS011;61664;48.112;11.662;2023-04-08T14:51:15;7.15;;;6.45;;
31378;SDS011;61664;48.112;11.662;2023-04-08T14:53:43;7.57;;;6.90;;
31378;SDS011;61664;48.112;11.662;2023-04-08T14:56:09;8.35;;;6.63;;
31378;SDS011;61664;48.112;11.662;2023-04-08T14:58:36;7.35;;;6.65;;
31378;SDS011;61664;48.112;11.662;2023-04-08T15:01:03;7.20;;;6.50;;
31378;SDS011;61664;48.112;11.662;2023-04-08T15:03:30;7.43;;;6.57;;
31378;SDS011;61664;48.112;11.662;2023-04-08T15:05:57;7.82;;;7.03;;